Time;durP1;ratioP1;P1;durP2;ratioP2;P2;SDS_P1;SDS_P2;PMS_P1;PMS_P2;Temp;Humidity;BMP_temperature;BMP_pressure;BME280_temperature;BME280_humidity;BME280_pressure;Samples;Min_cycle;Max_cycle;Signal;HPM_P1;HPM_P2
2023/03/22 00:01:21;;;;;;;;;;;;;;;;;;5054111;28;19913;-70
2023/03/22 00:03:47;;;;;;;;;;;;;;;;;;5044460;28;19927;-70
2023/03/22 00:06:12;;;;;;;;;;;;;;;;;;5061150;28;20012;-69
2023/03/22 00:08:37;;;;;;;;;;;;;;;;;;5036921;28;19917;-70
2023/03/22 00:11:02;;;;;;;;;;;;;;;;;;5060015;28;19939;-69
2023/03/22 00:13:27;;;;;;;;;;;;;;;;;;5058241;28;19952;-69
2023/03/22 00:15:54;;;;;;;;;;;;;;;;;;5059603;28;19923;-70
2023/03/22 00:18:19;;;;;;;;;;;;;;;;;;5059557;28;20025;-70
2023/03/22 00:20:44;;;;;;;;;;;;;;;;;;5055639;28;20337;-70
2023/03/22 00:23:09;;;;;;;;;;;;;;;;;;5062304;28;20326;-70
2023/03/22 00:25:35;;;;;;;;;;;;;;;;;;5057104;28;19925;-70
2023/03/22 00:28:00;;;;;;;;;;;;;;;;;;5056328;28;19926;-69
2023/03/22 00:30:25;;;;;;;;;;;;;;;;;;5054912;28;20380;-69
2023/03/22 00:32:50;;;;;;;;;;;;;;;;;;5060251;28;19912;-69
2023/03/22 00:35:15;;;;;;;;;;;;;;;;;;5041802;28;19916;-70
2023/03/22 00:37:40;;;;;;;;;;;;;;;;;;5056061;28;19913;-69
2023/03/22 00:40:09;;;;;;;;;;;;;;;;;;5053215;28;19917;-70
2023/03/22 00:42:34;;;;;;;;;;;;;;;;;;5053917;28;19917;-69
2023/03/22 00:44:59;;;;;;;;;;;;;;;;;;5059512;28;19928;-69
2023/03/22 00:47:25;;;;;;;;;;;;;;;;;;5061264;28;20061;-68
2023/03/22 00:49:50;;;;;;;;;;;;;;;;;;5060507;28;20391;-71
2023/03/22 00:52:15;;;;;;;;;;;;;;;;;;5059570;28;20332;-70
2023/03/22 00:54:40;;;;;;;;;;;;;;;;;;5056131;28;20345;-70
2023/03/22 00:57:05;;;;;;;;;;;;;;;;;;5045619;28;20434;-69
2023/03/22 00:59:30;;;;;;;;;;;;;;;;;;5055084;28;19917;-70
2023/03/22 01:01:57;;;;;;;;;;;;;;;;;;5058461;28;19913;-70
2023/03/22 01:04:24;;;;;;;;;;;;;;;;;;5057165;28;20268;-70
2023/03/22 01:06:50;;;;;;;;;;;;;;;;;;5058233;28;19925;-70
2023/03/22 01:09:15;;;;;;;;;;;;;;;;;;5039344;28;20345;-70
2023/03/22 01:11:40;;;;;;;;;;;;;;;;;;5058288;28;19920;-70
2023/03/22 01:14:08;;;;;;;;;;;;;;;;;;5058320;28;19999;-70
2023/03/22 01:16:33;;;;;;;;;;;;;;;;;;5058387;28;19986;-70
2023/03/22 01:18:58;;;;;;;;;;;;;;;;;;5058426;28;19921;-71
2023/03/22 01:21:23;;;;;;;;;;;;;;;;;;5044671;28;20284;-70
2023/03/22 01:23:49;;;;;;;;;;;;;;;;;;5055524;28;20380;-69
2023/03/22 01:26:14;;;;;;;;;;;;;;;;;;5063120;28;19918;-70
2023/03/22 01:28:39;;;;;;;;;;;;;;;;;;5058168;28;19912;-70
2023/03/22 01:31:04;;;;;;;;;;;;;;;;;;5056558;28;19961;-70
2023/03/22 01:33:29;;;;;;;;;;;;;;;;;;5057928;28;20292;-69
2023/03/22 01:35:55;;;;;;;;;;;;;;;;;;5060125;28;19913;-70
2023/03/22 01:38:20;;;;;;;;;;;;;;;;;;5043334;28;20288;-71
2023/03/22 01:40:45;;;;;;;;;;;;;;;;;;5059002;28;19919;-71
2023/03/22 01:43:10;;;;;;;;;;;;;;;;;;5058231;28;19916;-70
2023/03/22 01:45:35;;;;;;;;;;;;;;;;;;5058807;28;19924;-70
2023/03/22 01:48:01;;;;;;;;;;;;;;;;;;5056387;28;19965;-70
2023/03/22 01:50:26;;;;;;;;;;;;;;;;;;5060608;28;20670;-70
2023/03/22 01:52:51;;;;;;;;;;;;;;;;;;5058803;28;19936;-70
2023/03/22 01:55:17;;;;;;;;;;;;;;;;;;5061083;28;19995;-70
2023/03/22 01:57:42;;;;;;;;;;;;;;;;;;5060804;28;19947;-70
2023/03/22 02:00:09;;;;;;;;;;;;;;;;;;5053319;28;19927;-70
2023/03/22 02:02:34;;;;;;;;;;;;;;;;;;5058697;28;19994;-70
2023/03/22 02:04:59;;;;;;;;;;;;;;;;;;5058111;28;19920;-69
2023/03/22 02:07:26;;;;;;;;;;;;;;;;;;5059054;28;20046;-69
2023/03/22 02:15:19;;;;;;;;;;;;;;;;;;5028598;28;19950;-69
2023/03/22 02:17:45;;;;;;;;;;;;;;;;;;5039397;28;19916;-69
2023/03/22 02:20:11;;;;;;;;;;;;;;;;;;5045743;28;19916;-70
2023/03/22 02:22:37;;;;;;;;;;;;;;;;;;5025864;28;19917;-69
2023/03/22 02:25:03;;;;;;;;;;;;;;;;;;5037895;28;19917;-69
2023/03/22 02:27:28;;;;;;;;;;;;;;;;;;5040699;28;20357;-70
2023/03/22 02:29:53;;;;;;;;;;;;;;;;;;5039258;28;20351;-70
2023/03/22 02:32:18;;;;;;;;;;;;;;;;;;5040015;28;20372;-70
2023/03/22 02:34:43;;;;;;;;;;;;;;;;;;5038943;28;19913;-69
2023/03/22 02:37:09;;;;;;;;;;;;;;;;;;5040635;28;19912;-70
2023/03/22 02:39:34;;;;;;;;;;;;;;;;;;5042752;28;19959;-70
2023/03/22 02:41:59;;;;;;;;;;;;;;;;;;5042974;28;19909;-69
2023/03/22 02:44:24;;;;;;;;;;;;;;;;;;5020323;28;19920;-70
2023/03/22 02:46:50;;;;;;;;;;;;;;;;;;5041367;28;19917;-70
2023/03/22 02:49:15;;;;;;;;;;;;;;;;;;5041370;28;20054;-70
2023/03/22 02:51:40;;;;;;;;;;;;;;;;;;5038365;28;19951;-69
2023/03/22 02:54:05;;;;;;;;;;;;;;;;;;5022569;28;19924;-70
2023/03/22 02:56:30;;;;;;;;;;;;;;;;;;5040105;28;19917;-69
2023/03/22 02:58:56;;;;;;;;;;;;;;;;;;5041215;28;19920;-71
2023/03/22 03:01:21;;;;;;;;;;;;;;;;;;5024059;28;19917;-70
2023/03/22 03:03:47;;;;;;;;;;;;;;;;;;5039951;28;19916;-69
2023/03/22 03:06:12;;;;;;;;;;;;;;;;;;5041593;28;19952;-69
2023/03/22 03:08:37;;;;;;;;;;;;;;;;;;5038563;28;19921;-70
2023/03/22 03:11:02;;;;;;;;;;;;;;;;;;5037695;28;19917;-70
2023/03/22 03:13:27;;;;;;;;;;;;;;;;;;5038604;28;19912;-70
2023/03/22 03:15:52;;;;;;;;;;;;;;;;;;5047270;28;19961;-70
2023/03/22 03:18:17;;;;;;;;;;;;;;;;;;5081559;28;19916;-70
2023/03/22 03:20:43;;;;;;;;;;;;;;;;;;5063771;28;19958;-70
2023/03/22 03:23:08;;;;;;;;;;;;;;;;;;5079981;28;19917;-70
2023/03/22 03:25:33;;;;;;;;;;;;;;;;;;5084546;28;20337;-70
2023/03/22 03:27:58;;;;;;;;;;;;;;;;;;5063805;28;19912;-71
2023/03/22 03:30:23;;;;;;;;;;;;;;;;;;5075567;28;20000;-69
2023/03/22 03:32:48;;;;;;;;;;;;;;;;;;5082099;28;19912;-70
2023/03/22 03:35:21;;;;;;;;;;;;;;;;;;5079589;28;19912;-70
2023/03/22 03:37:46;;;;;;;;;;;;;;;;;;5081417;28;19915;-70
2023/03/22 03:40:11;;;;;;;;;;;;;;;;;;5065224;28;19912;-70
2023/03/22 03:42:36;;;;;;;;;;;;;;;;;;5080298;28;19912;-70
2023/03/22 03:45:01;;;;;;;;;;;;;;;;;;5077722;28;20372;-71
2023/03/22 03:47:27;;;;;;;;;;;;;;;;;;5077418;28;20019;-70
2023/03/22 03:49:52;;;;;;;;;;;;;;;;;;5082158;28;20351;-70
2023/03/22 03:52:17;;;;;;;;;;;;;;;;;;5083385;28;19912;-75
2023/03/22 03:54:44;;;;;;;;;;;;;;;;;;5075339;28;19924;-74
2023/03/22 03:57:10;;;;;;;;;;;;;;;;;;5081748;28;19951;-75
2023/03/22 03:59:35;;;;;;;;;;;;;;;;;;5081059;28;19935;-74
2023/03/22 04:02:01;;;;;;;;;;;;;;;;;;5079531;28;19916;-74
2023/03/22 04:04:26;;;;;;;;;;;;;;;;;;5079224;28;19916;-74
2023/03/22 04:06:52;;;;;;;;;;;;;;;;;;5066181;28;19908;-74
2023/03/22 04:09:17;;;;;;;;;;;;;;;;;;5077056;28;20423;-74
2023/03/22 04:11:42;;;;;;;;;;;;;;;;;;5066830;28;20443;-74
2023/03/22 04:14:08;;;;;;;;;;;;;;;;;;5081711;28;19912;-74
2023/03/22 04:16:33;;;;;;;;;;;;;;;;;;5079788;28;19916;-74
2023/03/22 04:18:58;;;;;;;;;;;;;;;;;;5077527;28;19912;-74
2023/03/22 04:21:23;;;;;;;;;;;;;;;;;;5077982;28;19908;-74
2023/03/22 04:23:48;;;;;;;;;;;;;;;;;;5064290;28;19921;-74
2023/03/22 04:26:13;;;;;;;;;;;;;;;;;;5083140;28;19915;-72
2023/03/22 04:28:38;;;;;;;;;;;;;;;;;;5077102;28;19919;-74
2023/03/22 04:31:04;;;;;;;;;;;;;;;;;;5075894;28;20583;-74
2023/03/22 04:33:31;;;;;;;;;;;;;;;;;;5078760;28;19921;-74
2023/03/22 04:35:56;;;;;;;;;;;;;;;;;;5078434;28;19916;-74
2023/03/22 04:38:21;;;;;;;;;;;;;;;;;;5061711;28;19970;-74
2023/03/22 04:40:46;;;;;;;;;;;;;;;;;;5080251;28;19920;-74
2023/03/22 04:43:11;;;;;;;;;;;;;;;;;;5080459;28;19944;-76
2023/03/22 04:45:37;;;;;;;;;;;;;;;;;;5059446;28;19986;-74
2023/03/22 04:48:03;;;;;;;;;;;;;;;;;;5061923;28;19966;-74
2023/03/22 04:50:28;;;;;;;;;;;;;;;;;;5058232;28;20186;-74
2023/03/22 04:52:53;;;;;;;;;;;;;;;;;;5062396;28;19909;-74
2023/03/22 04:55:18;;;;;;;;;;;;;;;;;;5064970;28;19966;-74
2023/03/22 04:57:43;;;;;;;;;;;;;;;;;;5065373;28;20003;-74
2023/03/22 05:00:08;;;;;;;;;;;;;;;;;;5072418;28;20367;-74
2023/03/22 05:02:36;;;;;;;;;;;;;;;;;;5063920;28;19920;-74
2023/03/22 05:05:01;;;;;;;;;;;;;;;;;;5080819;28;20454;-74
2023/03/22 05:07:26;;;;;;;;;;;;;;;;;;5078826;28;19919;-74
2023/03/22 05:09:51;;;;;;;;;;;;;;;;;;5076219;28;20417;-74
2023/03/22 05:12:17;;;;;;;;;;;;;;;;;;5082067;28;19908;-74
2023/03/22 05:14:42;;;;;;;;;;;;;;;;;;5079743;28;20394;-73
2023/03/22 05:17:07;;;;;;;;;;;;;;;;;;5074836;28;19916;-74
2023/03/22 05:19:33;;;;;;;;;;;;;;;;;;5078738;28;19926;-74
2023/03/22 05:22:00;;;;;;;;;;;;;;;;;;5062754;28;20363;-74
2023/03/22 05:24:25;;;;;;;;;;;;;;;;;;5073282;28;20136;-74
2023/03/22 05:26:52;;;;;;;;;;;;;;;;;;5082725;28;20028;-74
2023/03/22 05:29:17;;;;;;;;;;;;;;;;;;5073926;28;20284;-74
2023/03/22 05:31:42;;;;;;;;;;;;;;;;;;5078763;28;20472;-74
2023/03/22 05:34:08;;;;;;;;;;;;;;;;;;5058995;28;19913;-74
2023/03/22 05:36:35;;;;;;;;;;;;;;;;;;5080737;28;19965;-74
2023/03/22 05:39:01;;;;;;;;;;;;;;;;;;5082316;28;19909;-74
2023/03/22 05:41:26;;;;;;;;;;;;;;;;;;5078043;28;19919;-74
2023/03/22 05:43:51;;;;;;;;;;;;;;;;;;5075528;28;19927;-74
2023/03/22 05:46:16;;;;;;;;;;;;;;;;;;5080271;28;20451;-75
2023/03/22 05:48:41;;;;;;;;;;;;;;;;;;5082443;28;19920;-73
2023/03/22 05:51:06;;;;;;;;;;;;;;;;;;5080336;28;19915;-74
2023/03/22 05:53:32;;;;;;;;;;;;;;;;;;5077728;28;20287;-74
2023/03/22 05:55:59;;;;;;;;;;;;;;;;;;5080674;28;20007;-74
2023/03/22 05:58:27;;;;;;;;;;;;;;;;;;5063704;28;19907;-74
2023/03/22 06:00:53;;;;;;;;;;;;;;;;;;5078060;28;20307;-74
2023/03/22 06:03:18;;;;;;;;;;;;;;;;;;5077711;28;19913;-74
2023/03/22 06:05:43;;;;;;;;;;;;;;;;;;5079797;28;19990;-74
2023/03/22 06:08:08;;;;;;;;;;;;;;;;;;5075011;28;19917;-75
2023/03/22 06:10:33;;;;;;;;;;;;;;;;;;5086744;28;20215;-73
2023/03/22 06:12:58;;;;;;;;;;;;;;;;;;5078625;28;19919;-73
2023/03/22 06:15:24;;;;;;;;;;;;;;;;;;5085692;28;20291;-73
2023/03/22 06:17:49;;;;;;;;;;;;;;;;;;5084599;28;20363;-74
2023/03/22 06:20:14;;;;;;;;;;;;;;;;;;5083308;28;20690;-74
2023/03/22 06:22:39;;;;;;;;;;;;;;;;;;5078128;28;19923;-74
2023/03/22 06:25:05;;;;;;;;;;;;;;;;;;5079408;28;19927;-74
2023/03/22 06:27:30;;;;;;;;;;;;;;;;;;5083308;28;19916;-74
2023/03/22 06:29:55;;;;;;;;;;;;;;;;;;5078566;28;19966;-74
2023/03/22 06:32:22;;;;;;;;;;;;;;;;;;5080673;28;20423;-74
2023/03/22 06:34:47;;;;;;;;;;;;;;;;;;5061061;28;19917;-73
2023/03/22 06:37:12;;;;;;;;;;;;;;;;;;5077711;28;19916;-75
2023/03/22 06:39:37;;;;;;;;;;;;;;;;;;5066319;28;19916;-75
2023/03/22 06:42:02;;;;;;;;;;;;;;;;;;5079878;28;19987;-74
2023/03/22 06:44:27;;;;;;;;;;;;;;;;;;5080153;28;19920;-74
2023/03/22 06:46:53;;;;;;;;;;;;;;;;;;5083443;28;20054;-75
2023/03/22 06:49:18;;;;;;;;;;;;;;;;;;5079388;28;20073;-74
2023/03/22 06:51:43;;;;;;;;;;;;;;;;;;5063845;28;19919;-74
2023/03/22 06:54:08;;;;;;;;;;;;;;;;;;5079199;28;19916;-74
2023/03/22 06:56:34;;;;;;;;;;;;;;;;;;5062678;28;19924;-74
2023/03/22 06:58:59;;;;;;;;;;;;;;;;;;5080947;28;20317;-74
2023/03/22 07:01:24;;;;;;;;;;;;;;;;;;5081399;28;19954;-74
2023/03/22 07:03:49;;;;;;;;;;;;;;;;;;5078025;28;19966;-74
2023/03/22 07:06:15;;;;;;;;;;;;;;;;;;5079632;28;19912;-74
2023/03/22 07:08:40;;;;;;;;;;;;;;;;;;5077113;28;19946;-74
2023/03/22 07:11:05;;;;;;;;;;;;;;;;;;5077454;28;19996;-74
2023/03/22 07:13:30;;;;;;;;;;;;;;;;;;5074788;28;19916;-73
2023/03/22 07:15:55;;;;;;;;;;;;;;;;;;5074641;28;20024;-74
2023/03/22 07:18:21;;;;;;;;;;;;;;;;;;5073889;28;20003;-74
2023/03/22 07:20:46;;;;;;;;;;;;;;;;;;5081441;28;20002;-74
2023/03/22 07:23:11;;;;;;;;;;;;;;;;;;5081260;28;19948;-73
2023/03/22 07:25:36;;;;;;;;;;;;;;;;;;5073109;28;20208;-74
2023/03/22 07:28:01;;;;;;;;;;;;;;;;;;5076469;28;19912;-75
2023/03/22 07:30:26;;;;;;;;;;;;;;;;;;5075491;28;20423;-74
2023/03/22 07:32:51;;;;;;;;;;;;;;;;;;5073023;28;20039;-74
2023/03/22 07:35:17;;;;;;;;;;;;;;;;;;5082005;28;19912;-74
2023/03/22 07:37:42;;;;;;;;;;;;;;;;;;5075836;28;19912;-75
2023/03/22 07:40:07;;;;;;;;;;;;;;;;;;5083661;28;19916;-74
2023/03/22 07:42:33;;;;;;;;;;;;;;;;;;5080118;28;19939;-74
2023/03/22 07:44:58;;;;;;;;;;;;;;;;;;5077983;28;20276;-74
2023/03/22 07:47:24;;;;;;;;;;;;;;;;;;5076294;28;20348;-73
2023/03/22 07:49:50;;;;;;;;;;;;;;;;;;5063511;28;19923;-75
2023/03/22 07:52:15;;;;;;;;;;;;;;;;;;5079646;28;19912;-74
2023/03/22 07:54:40;;;;;;;;;;;;;;;;;;5076703;28;19912;-75
2023/03/22 07:57:05;;;;;;;;;;;;;;;;;;5077763;28;20260;-75
2023/03/22 07:59:30;;;;;;;;;;;;;;;;;;5075949;28;20418;-74
2023/03/22 08:01:55;;;;;;;;;;;;;;;;;;5078740;28;19912;-74
2023/03/22 08:04:21;;;;;;;;;;;;;;;;;;5079882;28;20354;-75
2023/03/22 08:06:46;;;;;;;;;;;;;;;;;;5081085;28;19944;-75
2023/03/22 08:09:11;;;;;;;;;;;;;;;;;;5065981;28;19999;-75
2023/03/22 08:11:36;;;;;;;;;;;;;;;;;;5062347;28;20379;-74
2023/03/22 08:14:01;;;;;;;;;;;;;;;;;;5072781;28;20641;-75
2023/03/22 08:16:26;;;;;;;;;;;;;;;;;;5077615;28;19927;-74
2023/03/22 08:18:52;;;;;;;;;;;;;;;;;;5075357;28;19924;-75
2023/03/22 08:21:17;;;;;;;;;;;;;;;;;;5079706;28;19912;-74
2023/03/22 08:23:42;;;;;;;;;;;;;;;;;;5059338;28;19917;-74
2023/03/22 08:26:07;;;;;;;;;;;;;;;;;;5078357;28;20003;-74
2023/03/22 08:28:32;;;;;;;;;;;;;;;;;;5077222;28;19978;-75
2023/03/22 08:30:57;;;;;;;;;;;;;;;;;;5081253;28;20278;-74
2023/03/22 08:33:22;;;;;;;;;;;;;;;;;;5081466;28;19919;-74
2023/03/22 08:35:47;;;;;;;;;;;;;;;;;;5080078;28;20314;-74
2023/03/22 08:38:13;;;;;;;;;;;;;;;;;;5083784;28;19913;-74
2023/03/22 08:40:38;;;;;;;;;;;;;;;;;;5077189;28;19921;-75
2023/03/22 08:43:03;;;;;;;;;;;;;;;;;;5077851;28;20277;-75
2023/03/22 08:45:28;;;;;;;;;;;;;;;;;;5078442;28;20115;-75
2023/03/22 08:47:53;;;;;;;;;;;;;;;;;;5082345;28;19940;-75
2023/03/22 08:50:18;;;;;;;;;;;;;;;;;;5061503;28;20349;-74
2023/03/22 08:52:43;;;;;;;;;;;;;;;;;;5078649;28;20421;-74
2023/03/22 08:55:09;;;;;;;;;;;;;;;;;;5083258;28;19947;-75
2023/03/22 08:57:34;;;;;;;;;;;;;;;;;;5072386;28;20435;-75
2023/03/22 08:59:59;;;;;;;;;;;;;;;;;;5072764;28;19916;-73
2023/03/22 09:02:24;;;;;;;;;;;;;;;;;;5073071;28;20360;-74
2023/03/22 09:04:49;;;;;;;;;;;;;;;;;;5056119;28;20359;-75
2023/03/22 09:07:16;;;;;;;;;;;;;;;;;;5078611;28;20621;-75
2023/03/22 09:09:41;;;;;;;;;;;;;;;;;;5075604;28;20370;-74
2023/03/22 09:12:06;;;;;;;;;;;;;;;;;;5074871;28;20296;-75
2023/03/22 09:14:31;;;;;;;;;;;;;;;;;;5057343;28;19916;-74
2023/03/22 09:16:56;;;;;;;;;;;;;;;;;;5061450;28;19931;-75
2023/03/22 09:19:21;;;;;;;;;;;;;;;;;;5050487;28;19916;-74
2023/03/22 09:21:47;;;;;;;;;;;;;;;;;;5042590;28;19912;-74
2023/03/22 09:24:12;;;;;;;;;;;;;;;;;;5061749;28;20354;-74
2023/03/22 09:26:37;;;;;;;;;;;;;;;;;;5056395;28;19916;-74
2023/03/22 09:29:02;;;;;;;;;;;;;;;;;;5056440;28;20291;-75
2023/03/22 09:31:27;;;;;;;;;;;;;;;;;;5062621;28;19912;-74
2023/03/22 09:33:52;;;;;;;;;;;;;;;;;;5054724;28;19913;-74
2023/03/22 09:36:18;;;;;;;;;;;;;;;;;;5060755;28;19975;-74
2023/03/22 09:38:44;;;;;;;;;;;;;;;;;;5050799;28;20268;-74
2023/03/22 09:41:09;;;;;;;;;;;;;;;;;;5053828;28;19917;-74
2023/03/22 09:43:34;;;;;;;;;;;;;;;;;;5049438;28;19940;-74
2023/03/22 09:45:59;;;;;;;;;;;;;;;;;;5050653;28;19971;-75
2023/03/22 09:48:24;;;;;;;;;;;;;;;;;;5052344;28;19923;-75
2023/03/22 09:50:49;;;;;;;;;;;;;;;;;;5052499;28;20412;-74
2023/03/22 09:53:15;;;;;;;;;;;;;;;;;;5050062;28;19999;-76
2023/03/22 09:55:40;;;;;;;;;;;;;;;;;;5058633;28;19948;-73
2023/03/22 09:58:05;;;;;;;;;;;;;;;;;;5057130;28;19996;-75
2023/03/22 10:00:30;;;;;;;;;;;;;;;;;;5058166;28;20354;-74
2023/03/22 10:02:55;;;;;;;;;;;;;;;;;;5058766;28;19961;-74
2023/03/22 10:05:21;;;;;;;;;;;;;;;;;;5063092;28;19947;-75
2023/03/22 10:07:46;;;;;;;;;;;;;;;;;;5054563;28;19916;-74
2023/03/22 10:10:11;;;;;;;;;;;;;;;;;;5055858;28;19913;-74
2023/03/22 10:12:36;;;;;;;;;;;;;;;;;;5059057;28;19966;-74
2023/03/22 10:15:01;;;;;;;;;;;;;;;;;;5058271;28;19923;-75
2023/03/22 10:17:26;;;;;;;;;;;;;;;;;;5057388;28;20348;-74
2023/03/22 10:19:51;;;;;;;;;;;;;;;;;;5056380;28;19993;-74
2023/03/22 10:22:16;;;;;;;;;;;;;;;;;;5061424;28;20372;-74
2023/03/22 10:24:42;;;;;;;;;;;;;;;;;;5055747;28;20011;-74
2023/03/22 10:27:07;;;;;;;;;;;;;;;;;;5056705;28;19920;-75
2023/03/22 10:29:32;;;;;;;;;;;;;;;;;;5057390;28;20065;-74
2023/03/22 10:31:57;;;;;;;;;;;;;;;;;;5056047;28;19929;-73
2023/03/22 10:34:22;;;;;;;;;;;;;;;;;;5062165;28;20356;-74
2023/03/22 10:36:47;;;;;;;;;;;;;;;;;;5061760;28;20002;-74
2023/03/22 10:39:15;;;;;;;;;;;;;;;;;;5040394;28;19920;-74
2023/03/22 10:41:40;;;;;;;;;;;;;;;;;;5058238;28;19913;-74
2023/03/22 10:44:05;;;;;;;;;;;;;;;;;;5059089;28;19917;-74
2023/03/22 10:46:30;;;;;;;;;;;;;;;;;;5058380;28;19970;-74
2023/03/22 10:48:56;;;;;;;;;;;;;;;;;;5060159;28;19908;-75
2023/03/22 10:51:21;;;;;;;;;;;;;;;;;;5056675;28;20588;-74
2023/03/22 10:53:46;;;;;;;;;;;;;;;;;;5057499;28;20004;-74
2023/03/22 10:56:11;;;;;;;;;;;;;;;;;;5055876;28;20388;-74
2023/03/22 10:58:36;;;;;;;;;;;;;;;;;;5063314;28;19919;-74
2023/03/22 11:01:02;;;;;;;;;;;;;;;;;;5063434;28;19960;-74
2023/03/22 11:03:27;;;;;;;;;;;;;;;;;;5046858;28;19909;-74
2023/03/22 11:05:52;;;;;;;;;;;;;;;;;;5058537;28;19921;-75
2023/03/22 11:08:17;;;;;;;;;;;;;;;;;;5055499;28;19920;-73
2023/03/22 11:10:42;;;;;;;;;;;;;;;;;;5054109;28;20071;-73
2023/03/22 11:13:08;;;;;;;;;;;;;;;;;;5040011;28;20320;-74
2023/03/22 11:15:33;;;;;;;;;;;;;;;;;;5059422;28;19913;-73
2023/03/22 11:17:58;;;;;;;;;;;;;;;;;;5040161;28;20003;-74
2023/03/22 11:20:24;;;;;;;;;;;;;;;;;;5039125;28;19917;-75
2023/03/22 11:22:49;;;;;;;;;;;;;;;;;;5027648;28;20269;-74
2023/03/22 11:25:14;;;;;;;;;;;;;;;;;;5033643;28;19921;-74
2023/03/22 11:27:39;;;;;;;;;;;;;;;;;;5039379;28;19908;-74
2023/03/22 11:30:05;;;;;;;;;;;;;;;;;;5041585;28;20585;-74
2023/03/22 11:32:31;;;;;;;;;;;;;;;;;;5040409;28;19927;-73
2023/03/22 11:34:56;;;;;;;;;;;;;;;;;;5022169;28;19968;-73
2023/03/22 11:37:21;;;;;;;;;;;;;;;;;;5045377;28;19920;-74
2023/03/22 11:39:48;;;;;;;;;;;;;;;;;;5042198;28;20581;-72
2023/03/22 11:42:13;;;;;;;;;;;;;;;;;;5038585;28;20023;-73
2023/03/22 11:44:38;;;;;;;;;;;;;;;;;;5041000;28;20467;-75
2023/03/22 11:47:03;;;;;;;;;;;;;;;;;;5040842;28;19913;-74
2023/03/22 11:49:28;;;;;;;;;;;;;;;;;;5025068;28;20063;-74
2023/03/22 11:51:54;;;;;;;;;;;;;;;;;;5044031;28;19916;-74
2023/03/22 11:54:19;;;;;;;;;;;;;;;;;;5034249;28;20384;-74
2023/03/22 11:56:44;;;;;;;;;;;;;;;;;;5040532;28;19913;-75
2023/03/22 11:59:10;;;;;;;;;;;;;;;;;;5044151;28;19920;-74
2023/03/22 12:01:35;;;;;;;;;;;;;;;;;;5039770;28;20321;-74
2023/03/22 12:04:00;;;;;;;;;;;;;;;;;;5024395;28;19995;-74
2023/03/22 12:06:27;;;;;;;;;;;;;;;;;;5036230;28;20300;-72
2023/03/22 12:08:52;;;;;;;;;;;;;;;;;;5035228;28;19919;-74
2023/03/22 12:11:18;;;;;;;;;;;;;;;;;;5039337;28;20243;-74
2023/03/22 12:13:43;;;;;;;;;;;;;;;;;;5036035;28;19909;-75
2023/03/22 12:16:09;;;;;;;;;;;;;;;;;;5040301;28;20003;-74
2023/03/22 12:18:35;;;;;;;;;;;;;;;;;;5058944;28;19909;-73
2023/03/22 12:21:00;;;;;;;;;;;;;;;;;;5058215;28;20407;-75
2023/03/22 12:23:25;;;;;;;;;;;;;;;;;;5056266;28;20356;-74
2023/03/22 12:25:50;;;;;;;;;;;;;;;;;;5055606;28;19932;-74
2023/03/22 12:28:15;;;;;;;;;;;;;;;;;;5055484;28;19913;-75
2023/03/22 12:30:40;;;;;;;;;;;;;;;;;;5059930;28;20886;-75
2023/03/22 12:33:05;;;;;;;;;;;;;;;;;;5064439;28;19909;-73
2023/03/22 12:35:30;;;;;;;;;;;;;;;;;;5058387;28;20062;-74
2023/03/22 12:37:56;;;;;;;;;;;;;;;;;;5056751;28;19912;-74
2023/03/22 12:40:21;;;;;;;;;;;;;;;;;;5060541;28;19915;-73
2023/03/22 12:42:46;;;;;;;;;;;;;;;;;;5061033;28;20343;-74
2023/03/22 12:45:12;;;;;;;;;;;;;;;;;;5062107;28;19936;-75
2023/03/22 12:47:37;;;;;;;;;;;;;;;;;;5051688;28;19914;-75
2023/03/22 12:50:02;;;;;;;;;;;;;;;;;;5055824;28;20300;-74
2023/03/22 12:52:27;;;;;;;;;;;;;;;;;;5054395;28;19920;-74
2023/03/22 12:54:53;;;;;;;;;;;;;;;;;;5054715;28;19951;-74
2023/03/22 12:57:18;;;;;;;;;;;;;;;;;;5058793;28;19970;-74
2023/03/22 12:59:43;;;;;;;;;;;;;;;;;;5057300;28;19940;-74
2023/03/22 13:02:08;;;;;;;;;;;;;;;;;;5058199;28;20348;-74
2023/03/22 13:04:33;;;;;;;;;;;;;;;;;;5058442;28;19917;-74
2023/03/22 13:06:58;;;;;;;;;;;;;;;;;;5054366;28;19928;-75
2023/03/22 13:09:23;;;;;;;;;;;;;;;;;;5051690;28;20367;-74
2023/03/22 13:11:48;;;;;;;;;;;;;;;;;;5052486;28;19917;-74
2023/03/22 13:14:14;;;;;;;;;;;;;;;;;;5052160;28;19912;-74
2023/03/22 13:16:39;;;;;;;;;;;;;;;;;;5059566;28;19917;-74
2023/03/22 13:19:06;;;;;;;;;;;;;;;;;;5056242;28;20394;-75
2023/03/22 13:21:32;;;;;;;;;;;;;;;;;;5057234;28;20372;-74
2023/03/22 13:23:59;;;;;;;;;;;;;;;;;;5056006;28;19913;-73
2023/03/22 13:26:24;;;;;;;;;;;;;;;;;;5058267;28;19993;-74
2023/03/22 13:28:49;;;;;;;;;;;;;;;;;;5057100;28;19920;-74
2023/03/22 13:31:14;;;;;;;;;;;;;;;;;;5058721;28;19959;-74
2023/03/22 13:33:40;;;;;;;;;;;;;;;;;;5051390;28;19913;-73
2023/03/22 13:36:05;;;;;;;;;;;;;;;;;;5061396;28;19909;-73
2023/03/22 13:38:30;;;;;;;;;;;;;;;;;;5060262;28;19920;-74
2023/03/22 13:40:55;;;;;;;;;;;;;;;;;;5060684;28;19908;-74
2023/03/22 13:43:20;;;;;;;;;;;;;;;;;;5054785;28;19943;-74
2023/03/22 13:45:46;;;;;;;;;;;;;;;;;;5058840;28;19999;-74
2023/03/22 13:48:11;;;;;;;;;;;;;;;;;;5060048;28;19944;-74
2023/03/22 13:50:36;;;;;;;;;;;;;;;;;;5054476;28;19917;-74
2023/03/22 13:53:01;;;;;;;;;;;;;;;;;;5059206;28;19966;-69
2023/03/22 13:55:26;;;;;;;;;;;;;;;;;;5058455;28;20376;-70
2023/03/22 13:57:51;;;;;;;;;;;;;;;;;;5059767;28;19913;-69
2023/03/22 14:00:17;;;;;;;;;;;;;;;;;;5061863;28;19913;-70
2023/03/22 14:02:43;;;;;;;;;;;;;;;;;;5064265;28;19920;-70
2023/03/22 14:05:08;;;;;;;;;;;;;;;;;;5066705;28;19921;-70
2023/03/22 14:07:33;;;;;;;;;;;;;;;;;;5069221;28;19912;-69
2023/03/22 14:09:58;;;;;;;;;;;;;;;;;;5073315;28;19919;-70
2023/03/22 14:12:23;;;;;;;;;;;;;;;;;;5071445;28;20388;-70
2023/03/22 14:14:48;;;;;;;;;;;;;;;;;;5072436;28;19920;-70
2023/03/22 14:17:14;;;;;;;;;;;;;;;;;;5071659;28;20424;-70
2023/03/22 14:19:39;;;;;;;;;;;;;;;;;;5073033;28;19915;-69
2023/03/22 14:22:05;;;;;;;;;;;;;;;;;;5068659;28;19916;-68
2023/03/22 14:24:33;;;;;;;;;;;;;;;;;;5072615;28;19928;-69
2023/03/22 14:26:58;;;;;;;;;;;;;;;;;;5063128;28;19920;-69
2023/03/22 14:29:24;;;;;;;;;;;;;;;;;;5072375;28;19915;-70
2023/03/22 14:31:49;;;;;;;;;;;;;;;;;;5071856;28;20015;-70
2023/03/22 14:34:14;;;;;;;;;;;;;;;;;;5071022;28;19920;-70
2023/03/22 14:36:40;;;;;;;;;;;;;;;;;;5069381;28;19913;-69
2023/03/22 14:39:05;;;;;;;;;;;;;;;;;;5063008;28;19935;-70
2023/03/22 14:41:30;;;;;;;;;;;;;;;;;;5058168;28;19959;-69
2023/03/22 14:43:55;;;;;;;;;;;;;;;;;;5062434;28;19916;-69
2023/03/22 14:46:28;;;;;;;;;;;;;;;;;;5055947;28;19928;-69
2023/03/22 14:48:53;;;;;;;;;;;;;;;;;;5062023;28;19922;-69
2023/03/22 14:51:18;;;;;;;;;;;;;;;;;;5072176;28;19913;-69
2023/03/22 14:53:43;;;;;;;;;;;;;;;;;;5059804;28;19924;-70
2023/03/22 14:56:09;;;;;;;;;;;;;;;;;;5067592;28;19923;-69
2023/03/22 14:58:34;;;;;;;;;;;;;;;;;;5055915;28;19955;-69
2023/03/22 15:00:59;;;;;;;;;;;;;;;;;;5061677;28;20019;-70
2023/03/22 15:03:24;;;;;;;;;;;;;;;;;;5056298;28;19913;-70
2023/03/22 15:05:50;;;;;;;;;;;;;;;;;;5065760;28;19916;-70
2023/03/22 15:08:15;;;;;;;;;;;;;;;;;;5058212;28;19951;-69
2023/03/22 15:10:40;;;;;;;;;;;;;;;;;;5065469;28;20010;-70
2023/03/22 15:13:06;;;;;;;;;;;;;;;;;;5056411;28;20356;-70
2023/03/22 15:15:31;;;;;;;;;;;;;;;;;;5060618;28;20438;-69
2023/03/22 15:17:56;;;;;;;;;;;;;;;;;;5064459;28;19923;-70
2023/03/22 15:20:21;;;;;;;;;;;;;;;;;;5064120;28;19927;-69
2023/03/22 15:22:46;;;;;;;;;;;;;;;;;;5067119;28;19912;-70
2023/03/22 15:25:12;;;;;;;;;;;;;;;;;;5061467;28;19924;-69
2023/03/22 15:27:37;;;;;;;;;;;;;;;;;;5056658;28;20450;-69
2023/03/22 15:30:02;;;;;;;;;;;;;;;;;;5059746;28;20373;-70
2023/03/22 15:32:27;;;;;;;;;;;;;;;;;;5056746;28;19924;-70
2023/03/22 15:34:53;;;;;;;;;;;;;;;;;;5056448;28;19920;-69
2023/03/22 15:37:18;;;;;;;;;;;;;;;;;;5050917;28;19928;-70
2023/03/22 15:39:43;;;;;;;;;;;;;;;;;;5058859;28;19995;-70
2023/03/22 15:42:08;;;;;;;;;;;;;;;;;;5057537;28;19913;-70
2023/03/22 15:44:35;;;;;;;;;;;;;;;;;;5056054;28;21775;-70
2023/03/22 15:47:00;;;;;;;;;;;;;;;;;;5055545;28;20046;-69
2023/03/22 15:49:25;;;;;;;;;;;;;;;;;;5052929;28;19920;-70
2023/03/22 15:51:50;;;;;;;;;;;;;;;;;;5070608;28;19923;-69
2023/03/22 15:54:16;;;;;;;;;;;;;;;;;;5056788;28;20277;-70
2023/03/22 15:56:41;;;;;;;;;;;;;;;;;;5048718;28;19917;-70
2023/03/22 15:59:08;;;;;;;;;;;;;;;;;;5053522;28;19999;-70
2023/03/22 16:01:33;;;;;;;;;;;;;;;;;;5055559;28;20323;-70
2023/03/22 16:03:58;;;;;;;;;;;;;;;;;;5053427;28;19982;-71
2023/03/22 16:06:24;;;;;;;;;;;;;;;;;;5055115;28;19912;-71
2023/03/22 16:08:49;;;;;;;;;;;;;;;;;;5056498;28;20608;-71
2023/03/22 16:11:14;;;;;;;;;;;;;;;;;;5058195;28;19912;-70
2023/03/22 16:13:40;;;;;;;;;;;;;;;;;;5055730;28;19917;-71
2023/03/22 16:16:05;;;;;;;;;;;;;;;;;;5050994;28;20003;-71
2023/03/22 16:18:30;;;;;;;;;;;;;;;;;;5058165;28;19952;-71
2023/03/22 16:20:56;;;;;;;;;;;;;;;;;;5055113;28;19940;-71
2023/03/22 16:23:21;;;;;;;;;;;;;;;;;;5061987;28;20368;-71
2023/03/22 16:25:46;;;;;;;;;;;;;;;;;;5056115;28;19931;-71
2023/03/22 16:28:11;;;;;;;;;;;;;;;;;;5055420;28;19913;-70
2023/03/22 16:30:36;;;;;;;;;;;;;;;;;;5059281;28;19913;-70
2023/03/22 16:33:01;;;;;;;;;;;;;;;;;;5053511;28;19916;-71
2023/03/22 16:35:27;;;;;;;;;;;;;;;;;;5057356;28;20327;-71
2023/03/22 16:37:52;;;;;;;;;;;;;;;;;;5062323;28;19916;-71